Akron, Indiana
Current Conditions -  °F | °C
As of 10:55 AM on Tuesday 21 Oct 2014 (Local Time) from KRCR Reporting Station
Overcast Overcast  
Wind Chill: 11°   Ceiling: 1800
Heat Index: 11°   Visibility: 10mi
Dew Point:   Wind: 13mph
Humidity: 76%   Direction: 340°NNW
Pressure: 30.09"   Gusts: NA
Location:  41.04°N, 86.03°W
Report Text: KRCR 211455Z AUTO 34011KT 10SM BKN018 BKN025 OVC031 11/07 A3009 RMK AO2
Loading
Personal Weather Stations






























Interactive Weather Map
Tropical Storm Tracking
New forecast layout! Learn more

10-Day Weather Forecast

Advertisements
Track Severe Weather on mobile